createdAt,value
2022-12-24T00:02:15.491Z,50.65
2022-12-24T00:07:17.817Z,48.47
2022-12-24T00:12:20.047Z,54.88
2022-12-24T00:17:22.385Z,53.33
2022-12-24T00:22:24.695Z,50.75
2022-12-24T00:27:26.874Z,51.35
2022-12-24T00:32:29.081Z,52.47
2022-12-24T00:37:31.853Z,49.88
2022-12-24T00:42:38.386Z,40.97
2022-12-24T00:47:40.632Z,37.38
2022-12-24T00:52:42.775Z,38.50
2022-12-24T00:57:44.910Z,38.13
2022-12-24T01:02:47.403Z,37.90
2022-12-24T01:07:50.526Z,35.10
2022-12-24T01:12:52.761Z,37.72
2022-12-24T01:17:55.025Z,37.58
2022-12-24T01:22:57.226Z,31.67
2022-12-24T01:27:59.467Z,30.75
2022-12-24T01:33:01.660Z,30.95
2022-12-24T01:38:03.836Z,31.92
2022-12-24T01:43:24.567Z,32.03
2022-12-24T01:48:34.600Z,30.85
2022-12-24T01:53:39.924Z,34.33
2022-12-24T01:58:48.854Z,30.23
2022-12-24T02:03:51.446Z,28.85
2022-12-24T02:08:53.703Z,29.63
2022-12-24T02:14:05.663Z,27.02
2022-12-24T02:19:20.631Z,29.67
2022-12-24T02:24:49.667Z,27.13
2022-12-24T02:29:59.225Z,27.60
2022-12-24T02:35:40.232Z,30.17
2022-12-24T02:40:49.272Z,20.50
2022-12-24T02:45:59.173Z,31.70
2022-12-24T02:51:08.890Z,39.13
2022-12-24T02:56:35.032Z,35.95
2022-12-24T03:01:46.089Z,33.45
2022-12-24T03:06:55.914Z,33.95
2022-12-24T03:12:14.031Z,37.10
2022-12-24T03:17:17.757Z,36.17
2022-12-24T03:22:20.739Z,34.97
2022-12-24T03:27:26.016Z,34.53
2022-12-24T03:32:32.652Z,34.25
2022-12-24T03:37:34.891Z,37.35
2022-12-24T03:42:37.062Z,37.45
2022-12-24T03:47:39.273Z,38.90
2022-12-24T03:52:47.003Z,39.33
2022-12-24T03:57:49.253Z,40.60
2022-12-24T04:02:51.525Z,42.00
2022-12-24T04:07:55.279Z,45.20
2022-12-24T04:12:57.452Z,46.33
2022-12-24T04:17:59.653Z,46.55
2022-12-24T04:23:01.794Z,51.53
2022-12-24T04:28:04.031Z,46.90
2022-12-24T04:33:06.389Z,44.00
2022-12-24T04:38:11.316Z,43.95
2022-12-24T04:43:16.058Z,42.53
2022-12-24T04:48:18.189Z,38.88
2022-12-24T04:53:20.338Z,38.15
2022-12-24T04:58:22.477Z,39.20
2022-12-24T05:03:24.702Z,38.75
2022-12-24T05:08:27.181Z,38.65
2022-12-24T05:13:37.633Z,37.45
2022-12-24T05:18:45.044Z,34.15
2022-12-24T05:24:05.841Z,34.00
2022-12-24T05:34:11.624Z,29.83
2022-12-24T05:39:18.371Z,28.95
2022-12-24T05:44:20.738Z,31.20
2022-12-24T05:49:22.898Z,30.27
2022-12-24T05:54:25.111Z,26.40
2022-12-24T05:59:27.257Z,25.45
2022-12-24T06:04:29.657Z,26.92
2022-12-24T06:09:38.352Z,31.73
2022-12-24T06:14:40.561Z,31.42
2022-12-24T06:19:42.806Z,28.98
2022-12-24T06:24:46.896Z,26.52
2022-12-24T06:29:49.100Z,25.67
2022-12-24T06:34:51.251Z,26.33
2022-12-24T06:39:53.470Z,26.30
2022-12-24T06:44:55.735Z,29.27
2022-12-24T06:49:57.886Z,28.77
2022-12-24T06:55:00.024Z,28.55
2022-12-24T07:00:02.347Z,30.40
2022-12-24T07:05:04.886Z,31.80
2022-12-24T07:10:08.170Z,32.33
2022-12-24T07:15:11.498Z,36.28
2022-12-24T07:20:17.859Z,35.83
2022-12-24T07:25:20.068Z,37.30
2022-12-24T07:30:22.313Z,39.15
2022-12-24T07:35:24.483Z,44.10
2022-12-24T07:40:26.704Z,47.60
2022-12-24T07:45:31.619Z,49.92
2022-12-24T07:50:33.787Z,52.53
2022-12-24T07:55:36.873Z,51.33
2022-12-24T08:00:39.065Z,48.97
2022-12-24T08:05:41.221Z,39.58
2022-12-24T08:10:44.737Z,32.88
2022-12-24T08:15:46.980Z,28.35
2022-12-24T08:20:55.409Z,22.23
2022-12-24T08:25:57.563Z,21.23
2022-12-24T08:30:59.845Z,18.92
2022-12-24T08:36:03.421Z,19.63
2022-12-24T08:41:05.853Z,21.63
2022-12-24T08:46:08.070Z,20.23
2022-12-24T08:51:11.934Z,20.30
2022-12-24T08:56:14.502Z,20.90
2022-12-24T09:01:19.999Z,22.33
2022-12-24T09:06:22.320Z,24.00
2022-12-24T09:11:25.343Z,23.55
2022-12-24T09:16:28.354Z,23.55
2022-12-24T09:21:30.907Z,22.02
2022-12-24T09:26:33.330Z,22.40
2022-12-24T09:31:35.620Z,21.83
2022-12-24T09:36:37.908Z,20.52
2022-12-24T09:42:04.267Z,21.15
2022-12-24T09:47:35.401Z,19.67
2022-12-24T09:52:42.916Z,19.55
2022-12-24T09:57:48.261Z,16.45
2022-12-24T10:02:50.720Z,20.83
2022-12-24T10:08:13.845Z,32.50
2022-12-24T10:13:52.256Z,39.63
2022-12-24T10:19:16.190Z,35.55
2022-12-24T10:24:46.354Z,34.70
2022-12-24T10:30:16.837Z,37.15
2022-12-24T10:35:42.241Z,38.53
2022-12-24T10:40:49.667Z,38.33
2022-12-24T10:45:57.742Z,35.60
2022-12-24T10:51:08.212Z,37.88
2022-12-24T10:56:13.544Z,36.28
2022-12-24T11:01:15.985Z,33.60
2022-12-24T11:06:23.795Z,35.05
2022-12-24T11:11:26.062Z,34.58
2022-12-24T11:16:35.795Z,32.42
2022-12-24T11:21:41.860Z,34.92
2022-12-24T11:26:48.732Z,36.53
2022-12-24T11:31:53.155Z,36.63
2022-12-24T11:37:14.248Z,35.80
2022-12-24T11:42:35.052Z,35.95
2022-12-24T11:47:40.868Z,32.22
2022-12-24T11:52:43.897Z,36.63
2022-12-24T11:58:05.113Z,37.50
2022-12-24T12:03:37.781Z,44.35
2022-12-24T12:08:41.975Z,39.47
2022-12-24T12:13:46.535Z,41.53
2022-12-24T12:19:05.650Z,38.10
2022-12-24T12:24:45.436Z,44.17
2022-12-24T12:29:55.777Z,37.13
2022-12-24T12:35:15.732Z,37.92
2022-12-24T12:40:18.630Z,40.72
2022-12-24T12:45:44.307Z,43.78
2022-12-24T12:50:52.317Z,41.53
2022-12-24T12:56:24.367Z,43.08
2022-12-24T13:01:32.817Z,42.10
2022-12-24T13:06:44.337Z,42.95
2022-12-24T13:12:06.852Z,43.33
2022-12-24T13:17:31.913Z,40.33
2022-12-24T13:22:34.165Z,40.63
2022-12-24T13:27:36.906Z,46.33
2022-12-24T13:32:50.882Z,42.85
2022-12-24T13:37:58.525Z,56.25
2022-12-24T13:43:01.607Z,42.17
2022-12-24T13:48:06.541Z,37.75
2022-12-24T13:53:44.318Z,39.15
2022-12-24T13:59:10.267Z,34.65
2022-12-24T14:04:26.686Z,36.95
2022-12-24T14:09:31.469Z,35.05
2022-12-24T14:14:37.705Z,35.05
2022-12-24T14:19:42.691Z,35.65
2022-12-24T14:24:53.530Z,35.08
2022-12-24T14:30:09.790Z,34.55
2022-12-24T14:35:12.065Z,38.42
2022-12-24T14:40:22.121Z,35.58
2022-12-24T14:50:57.748Z,32.70
2022-12-24T14:55:59.984Z,34.22
2022-12-24T15:01:28.203Z,34.95
2022-12-24T15:06:34.020Z,36.58
2022-12-24T15:11:36.956Z,37.45
2022-12-24T15:16:40.377Z,40.47
2022-12-24T15:21:44.476Z,40.97
2022-12-24T15:26:46.692Z,41.90
2022-12-24T15:31:54.665Z,41.30
2022-12-24T15:37:15.251Z,39.20
2022-12-24T15:42:19.506Z,37.05
2022-12-24T15:47:27.334Z,38.83
2022-12-24T15:52:29.757Z,39.22
2022-12-24T15:57:34.175Z,37.08
2022-12-24T16:02:46.116Z,36.92
2022-12-24T16:08:14.960Z,38.85
2022-12-24T16:13:19.564Z,43.85
2022-12-24T16:19:01.111Z,47.80
2022-12-24T16:24:08.591Z,46.13
2022-12-24T16:29:12.910Z,62.60
2022-12-24T16:34:16.253Z,55.35
2022-12-24T16:39:24.370Z,50.13
2022-12-24T16:44:26.597Z,46.00
2022-12-24T16:49:29.650Z,49.28
2022-12-24T16:54:31.882Z,47.45
2022-12-24T16:59:34.015Z,45.53
2022-12-24T17:04:36.206Z,44.42
2022-12-24T17:09:38.561Z,48.80
2022-12-24T17:14:43.155Z,62.83
2022-12-24T17:19:46.461Z,58.33
2022-12-24T17:24:48.752Z,51.67
2022-12-24T17:29:51.025Z,62.42
2022-12-24T17:34:53.283Z,68.78
2022-12-24T17:39:56.162Z,86.88
2022-12-24T17:44:58.386Z,104.70
2022-12-24T17:50:00.644Z,89.13
2022-12-24T17:55:02.814Z,81.07
2022-12-24T18:00:05.810Z,81.68
2022-12-24T18:05:08.324Z,81.55
2022-12-24T18:10:10.933Z,70.47
2022-12-24T18:15:13.148Z,67.97
2022-12-24T18:20:15.420Z,69.00
2022-12-24T18:25:17.893Z,60.47
2022-12-24T18:30:25.829Z,63.83
2022-12-24T18:35:29.954Z,63.60
2022-12-24T18:40:32.186Z,66.03
2022-12-24T18:45:34.442Z,68.53
2022-12-24T18:50:41.179Z,70.78
2022-12-24T18:55:43.473Z,70.68
2022-12-24T19:00:46.580Z,66.38
2022-12-24T19:05:48.811Z,65.78
2022-12-24T19:10:53.789Z,70.63
2022-12-24T19:15:58.438Z,86.65
2022-12-24T19:21:08.914Z,77.22
2022-12-24T19:26:11.925Z,83.05
2022-12-24T19:31:17.798Z,69.75
2022-12-24T19:36:23.000Z,74.57
2022-12-24T19:41:28.475Z,92.00
2022-12-24T19:46:33.796Z,106.05
2022-12-24T19:51:36.860Z,101.80
2022-12-24T19:56:39.996Z,110.78
2022-12-24T20:01:42.295Z,116.18
2022-12-24T20:06:44.863Z,141.60
2022-12-24T20:11:50.901Z,109.88
2022-12-24T20:16:53.132Z,100.40
2022-12-24T20:22:00.268Z,99.88
2022-12-24T20:27:02.601Z,95.70
2022-12-24T20:32:14.960Z,92.05
2022-12-24T20:37:17.153Z,81.55
2022-12-24T20:42:19.359Z,66.03
2022-12-24T20:47:21.553Z,73.00
2022-12-24T20:52:23.946Z,73.47
2022-12-24T20:57:36.107Z,73.88
2022-12-24T21:02:41.880Z,67.72
2022-12-24T21:07:45.500Z,65.57
2022-12-24T21:12:50.675Z,55.03
2022-12-24T21:17:53.842Z,40.70
2022-12-24T21:23:01.107Z,51.45
2022-12-24T21:28:03.885Z,47.08
2022-12-24T21:33:06.041Z,49.17
2022-12-24T21:38:08.515Z,46.53
2022-12-24T21:43:12.640Z,46.40
2022-12-24T21:48:33.478Z,48.83
2022-12-24T21:53:54.462Z,53.03
2022-12-24T21:58:56.775Z,39.92
2022-12-24T22:04:08.425Z,42.80
2022-12-24T22:09:29.777Z,42.03
2022-12-24T22:14:36.002Z,49.47
2022-12-24T22:19:41.740Z,44.60
2022-12-24T22:24:43.957Z,52.42
2022-12-24T22:29:46.373Z,52.80
2022-12-24T22:34:49.909Z,68.07
2022-12-24T22:39:55.224Z,65.22
2022-12-24T22:44:57.418Z,56.70
2022-12-24T22:49:59.632Z,53.67
2022-12-24T22:55:02.200Z,56.50
2022-12-24T23:00:28.773Z,100.32
2022-12-24T23:05:31.052Z,109.47
2022-12-24T23:10:33.576Z,121.97
2022-12-24T23:15:39.760Z,115.15
2022-12-24T23:20:45.727Z,116.63
2022-12-24T23:25:47.888Z,125.03
2022-12-24T23:30:58.269Z,115.38
2022-12-24T23:36:03.962Z,108.03
2022-12-24T23:41:07.954Z,115.88
2022-12-24T23:46:14.157Z,113.75
2022-12-24T23:51:19.912Z,101.47
2022-12-24T23:56:25.923Z,105.30
